YFC91 WSSL-WSSL
Flight info
| Callsign | YFC91 |
|---|---|
| Flight time | 0h 30m |
| Altitude | 8000 |
| Route | LATA |
| Aircraft | DA40/L-SBDGRY/S |
Departure
| Time | 2026-04-23 14:37 |
|---|---|
| Airport | Seletar Airport (WSSL) |
Arrival
| Time | 2026-04-23 15:07 |
|---|---|
| Airport | Seletar Airport (WSSL) |
| Time | Latitude | Longitude | Altitude | Speed | Heading |
|---|---|---|---|---|---|
| 2026-04-23 14:28 | 1.41425 | 103.86349 | 49 ft | 0 kts | 149° |
| 2026-04-23 14:33 | 1.41419 | 103.86352 | 49 ft | 6 kts | 151° |
| 2026-04-23 14:33 | 1.41390 | 103.86381 | 49 ft | 5 kts | 70° |
| 2026-04-23 14:33 | 1.41443 | 103.86418 | 49 ft | 11 kts | 34° |
| 2026-04-23 14:33 | 1.41486 | 103.86460 | 49 ft | 8 kts | 33° |
| 2026-04-23 14:34 | 1.41552 | 103.86502 | 49 ft | 13 kts | 34° |
| 2026-04-23 14:34 | 1.41559 | 103.86533 | 49 ft | 7 kts | 123° |
| 2026-04-23 14:34 | 1.41548 | 103.86549 | 49 ft | 0 kts | 123° |
| 2026-04-23 14:34 | 1.41520 | 103.86592 | 50 ft | 17 kts | 122° |
| 2026-04-23 14:35 | 1.41454 | 103.86606 | 50 ft | 10 kts | 213° |
| 2026-04-23 14:35 | 1.41336 | 103.86530 | 49 ft | 28 kts | 212° |
| 2026-04-23 14:35 | 1.41157 | 103.86410 | 49 ft | 31 kts | 213° |
| 2026-04-23 14:35 | 1.40982 | 103.86298 | 47 ft | 28 kts | 214° |
| 2026-04-23 14:36 | 1.40876 | 103.86227 | 47 ft | 4 kts | 114° |
| 2026-04-23 14:36 | 1.40876 | 103.86230 | 47 ft | 0 kts | 36° |
| 2026-04-23 14:36 | 1.40981 | 103.86300 | 47 ft | 44 kts | 33° |
| 2026-04-23 14:37 | 1.41340 | 103.86536 | 128 ft | 69 kts | 33° |
| 2026-04-23 14:37 | 1.41773 | 103.86811 | 280 ft | 78 kts | 32° |
| 2026-04-23 14:37 | 1.42223 | 103.87094 | 491 ft | 80 kts | 31° |
| 2026-04-23 14:37 | 1.42694 | 103.87354 | 736 ft | 75 kts | 7° |
| 2026-04-23 14:38 | 1.42995 | 103.86940 | 892 ft | 83 kts | 283° |
| 2026-04-23 14:38 | 1.43058 | 103.86350 | 1083 ft | 85 kts | 253° |
| 2026-04-23 14:38 | 1.42653 | 103.85938 | 1295 ft | 85 kts | 213° |
| 2026-04-23 14:38 | 1.42168 | 103.85591 | 1478 ft | 87 kts | 210° |
| 2026-04-23 14:39 | 1.41579 | 103.85237 | 1515 ft | 109 kts | 207° |
| 2026-04-23 14:39 | 1.40872 | 103.84848 | 1540 ft | 123 kts | 205° |
| 2026-04-23 14:39 | 1.40196 | 103.84317 | 1569 ft | 129 kts | 252° |
| 2026-04-23 14:39 | 1.39944 | 103.83456 | 1640 ft | 130 kts | 237° |
| 2026-04-23 14:40 | 1.39217 | 103.82932 | 1498 ft | 121 kts | 220° |
| 2026-04-23 14:40 | 1.39053 | 103.82231 | 1499 ft | 101 kts | 270° |
| 2026-04-23 14:40 | 1.39064 | 103.81492 | 1510 ft | 116 kts | 270° |
| 2026-04-23 14:40 | 1.39072 | 103.80717 | 1775 ft | 102 kts | 270° |
| 2026-04-23 14:41 | 1.39081 | 103.80029 | 2033 ft | 97 kts | 268° |
| 2026-04-23 14:41 | 1.39054 | 103.79363 | 2265 ft | 92 kts | 265° |
| 2026-04-23 14:41 | 1.38995 | 103.78731 | 2483 ft | 90 kts | 260° |
| 2026-04-23 14:41 | 1.38727 | 103.78223 | 2652 ft | 89 kts | 194° |
| 2026-04-23 14:42 | 1.38154 | 103.78268 | 2881 ft | 82 kts | 163° |
| 2026-04-23 14:42 | 1.38079 | 103.78671 | 3017 ft | 87 kts | 21° |
| 2026-04-23 14:42 | 1.38617 | 103.78412 | 3141 ft | 93 kts | 356° |
| 2026-04-23 14:42 | 1.39226 | 103.78338 | 3381 ft | 85 kts | 353° |
| 2026-04-23 14:43 | 1.39758 | 103.78184 | 3601 ft | 81 kts | 311° |
| 2026-04-23 14:43 | 1.39541 | 103.77767 | 3711 ft | 81 kts | 180° |
| 2026-04-23 14:43 | 1.38967 | 103.77789 | 3861 ft | 85 kts | 171° |
| 2026-04-23 14:43 | 1.38363 | 103.77868 | 4012 ft | 89 kts | 164° |
| 2026-04-23 14:44 | 1.37786 | 103.78057 | 4258 ft | 82 kts | 159° |
| 2026-04-23 14:44 | 1.37237 | 103.78214 | 4450 ft | 81 kts | 166° |
| 2026-04-23 14:44 | 1.37105 | 103.78635 | 4470 ft | 100 kts | 32° |
| 2026-04-23 14:44 | 1.37730 | 103.78694 | 4713 ft | 92 kts | 1° |
| 2026-04-23 14:45 | 1.38387 | 103.78703 | 4857 ft | 96 kts | 359° |
| 2026-04-23 14:45 | 1.39030 | 103.78687 | 5081 ft | 89 kts | 357° |
| 2026-04-23 14:45 | 1.39621 | 103.78648 | 5309 ft | 79 kts | 348° |
| 2026-04-23 14:45 | 1.40199 | 103.78515 | 5385 ft | 92 kts | 344° |
| 2026-04-23 14:46 | 1.40843 | 103.78385 | 5523 ft | 95 kts | 346° |
| 2026-04-23 14:46 | 1.41474 | 103.78198 | 5693 ft | 94 kts | 340° |
| 2026-04-23 14:46 | 1.41943 | 103.77853 | 5863 ft | 87 kts | 264° |
| 2026-04-23 14:46 | 1.41407 | 103.77655 | 5908 ft | 93 kts | 171° |
| 2026-04-23 14:47 | 1.40716 | 103.77740 | 5973 ft | 103 kts | 169° |
| 2026-04-23 14:47 | 1.39976 | 103.77868 | 5978 ft | 113 kts | 171° |
| 2026-04-23 14:47 | 1.39463 | 103.77955 | 6001 ft | 112 kts | 169° |
| 2026-04-23 14:47 | 1.38418 | 103.78166 | 5995 ft | 115 kts | 168° |
| 2026-04-23 14:48 | 1.37689 | 103.78429 | 5963 ft | 118 kts | 124° |
| 2026-04-23 14:48 | 1.38070 | 103.79020 | 6014 ft | 116 kts | 10° |
| 2026-04-23 14:48 | 1.38596 | 103.79025 | 5980 ft | 121 kts | 354° |
| 2026-04-23 14:48 | 1.39486 | 103.78865 | 5905 ft | 126 kts | 349° |
| 2026-04-23 14:49 | 1.40317 | 103.78697 | 6004 ft | 118 kts | 347° |
| 2026-04-23 14:49 | 1.41136 | 103.78521 | 5993 ft | 121 kts | 345° |
| 2026-04-23 14:49 | 1.41395 | 103.77876 | 5959 ft | 116 kts | 229° |
| 2026-04-23 14:49 | 1.40655 | 103.77810 | 5984 ft | 112 kts | 171° |
| 2026-04-23 14:50 | 1.39892 | 103.77953 | 5992 ft | 114 kts | 169° |
| 2026-04-23 14:50 | 1.39113 | 103.78096 | 6010 ft | 113 kts | 170° |
| 2026-04-23 14:50 | 1.38335 | 103.78226 | 6034 ft | 113 kts | 171° |
| 2026-04-23 14:50 | 1.37547 | 103.78385 | 5993 ft | 117 kts | 162° |
| 2026-04-23 14:51 | 1.37402 | 103.79054 | 5962 ft | 123 kts | 41° |
| 2026-04-23 14:51 | 1.38227 | 103.79140 | 5987 ft | 122 kts | 354° |
| 2026-04-23 14:51 | 1.39062 | 103.78996 | 5979 ft | 123 kts | 349° |
| 2026-04-23 14:51 | 1.39901 | 103.78848 | 6007 ft | 122 kts | 350° |
| 2026-04-23 14:52 | 1.40741 | 103.78709 | 6005 ft | 123 kts | 350° |
| 2026-04-23 14:52 | 1.41527 | 103.78434 | 5997 ft | 122 kts | 301° |
| 2026-04-23 14:52 | 1.41173 | 103.77893 | 5977 ft | 114 kts | 184° |
| 2026-04-23 14:52 | 1.40386 | 103.77955 | 5995 ft | 115 kts | 172° |
| 2026-04-23 14:53 | 1.39594 | 103.78112 | 5979 ft | 117 kts | 169° |
| 2026-04-23 14:53 | 1.38802 | 103.78264 | 5998 ft | 115 kts | 170° |
| 2026-04-23 14:53 | 1.38005 | 103.78387 | 6002 ft | 115 kts | 174° |
| 2026-04-23 14:53 | 1.37754 | 103.78956 | 5903 ft | 127 kts | 35° |
| 2026-04-23 14:54 | 1.38575 | 103.78978 | 5998 ft | 118 kts | 346° |
| 2026-04-23 14:54 | 1.39378 | 103.78746 | 5973 ft | 121 kts | 338° |
| 2026-04-23 14:54 | 1.40151 | 103.78435 | 5995 ft | 120 kts | 337° |
| 2026-04-23 14:54 | 1.40920 | 103.78109 | 6004 ft | 122 kts | 336° |
| 2026-04-23 14:55 | 1.41707 | 103.77792 | 6022 ft | 120 kts | 337° |
| 2026-04-23 14:55 | 1.41759 | 103.77212 | 5987 ft | 112 kts | 194° |
| 2026-04-23 14:55 | 1.41004 | 103.77347 | 5994 ft | 113 kts | 166° |
| 2026-04-23 14:55 | 1.40243 | 103.77518 | 6034 ft | 113 kts | 168° |
| 2026-04-23 14:56 | 1.39449 | 103.77658 | 6017 ft | 114 kts | 169° |
| 2026-04-23 14:56 | 1.38665 | 103.77836 | 6018 ft | 115 kts | 160° |
| 2026-04-23 14:56 | 1.38574 | 103.78461 | 5977 ft | 124 kts | 32° |
| 2026-04-23 14:56 | 1.39419 | 103.78401 | 5974 ft | 123 kts | 347° |
| 2026-04-23 14:57 | 1.40272 | 103.78233 | 5953 ft | 126 kts | 349° |
| 2026-04-23 14:57 | 1.41143 | 103.78081 | 5922 ft | 128 kts | 351° |
| 2026-04-23 14:57 | 1.41661 | 103.77542 | 5859 ft | 124 kts | 244° |
| 2026-04-23 14:57 | 1.40966 | 103.77396 | 5658 ft | 105 kts | 172° |
| 2026-04-23 14:58 | 1.40248 | 103.77490 | 5384 ft | 104 kts | 173° |
| 2026-04-23 14:58 | 1.39522 | 103.77566 | 5082 ft | 105 kts | 173° |
| 2026-04-23 14:58 | 1.38828 | 103.77625 | 4863 ft | 99 kts | 176° |
| 2026-04-23 14:58 | 1.38276 | 103.77934 | 4648 ft | 96 kts | 105° |
| 2026-04-23 14:59 | 1.38646 | 103.78421 | 4358 ft | 101 kts | 20° |
| 2026-04-23 14:59 | 1.39308 | 103.78470 | 4094 ft | 103 kts | 320° |
| 2026-04-23 14:59 | 1.39138 | 103.77907 | 3650 ft | 110 kts | 184° |
| 2026-04-23 14:59 | 1.38385 | 103.77984 | 3340 ft | 110 kts | 171° |
| 2026-04-23 15:00 | 1.37844 | 103.78307 | 3098 ft | 98 kts | 81° |
| 2026-04-23 15:00 | 1.38330 | 103.78804 | 2771 ft | 103 kts | 43° |
| 2026-04-23 15:00 | 1.38933 | 103.78982 | 2666 ft | 109 kts | 324° |
| 2026-04-23 15:00 | 1.38681 | 103.78463 | 2485 ft | 102 kts | 163° |
| 2026-04-23 15:01 | 1.38635 | 103.79047 | 2294 ft | 103 kts | 58° |
| 2026-04-23 15:01 | 1.39196 | 103.79166 | 2274 ft | 95 kts | 314° |
| 2026-04-23 15:01 | 1.39023 | 103.78647 | 2236 ft | 100 kts | 166° |
| 2026-04-23 15:01 | 1.38997 | 103.79219 | 2099 ft | 98 kts | 67° |
| 2026-04-23 15:02 | 1.39124 | 103.79929 | 2034 ft | 111 kts | 99° |
| 2026-04-23 15:02 | 1.38934 | 103.80694 | 2064 ft | 116 kts | 96° |
| 2026-04-23 15:02 | 1.38967 | 103.81474 | 2014 ft | 110 kts | 79° |
| 2026-04-23 15:02 | 1.39227 | 103.82156 | 1987 ft | 106 kts | 69° |
| 2026-04-23 15:03 | 1.39535 | 103.82862 | 1998 ft | 115 kts | 71° |
| 2026-04-23 15:03 | 1.39719 | 103.83660 | 2036 ft | 122 kts | 79° |
| 2026-04-23 15:03 | 1.39881 | 103.84527 | 1986 ft | 127 kts | 79° |
| 2026-04-23 15:03 | 1.40068 | 103.85389 | 1970 ft | 128 kts | 73° |
| 2026-04-23 15:04 | 1.40583 | 103.86102 | 2002 ft | 130 kts | 38° |
| 2026-04-23 15:04 | 1.41308 | 103.86607 | 1979 ft | 125 kts | 36° |
| 2026-04-23 15:04 | 1.42010 | 103.87064 | 1907 ft | 113 kts | 36° |
| 2026-04-23 15:04 | 1.42671 | 103.87430 | 1603 ft | 108 kts | 15° |
| 2026-04-23 15:05 | 1.43298 | 103.87082 | 1227 ft | 116 kts | 293° |
| 2026-04-23 15:05 | 1.43307 | 103.86358 | 1008 ft | 109 kts | 220° |
| 2026-04-23 15:05 | 1.42629 | 103.85945 | 997 ft | 116 kts | 208° |
| 2026-04-23 15:05 | 1.41925 | 103.85545 | 980 ft | 119 kts | 207° |
| 2026-04-23 15:06 | 1.41243 | 103.85152 | 870 ft | 106 kts | 209° |
| 2026-04-23 15:06 | 1.40614 | 103.84801 | 709 ft | 97 kts | 187° |
| 2026-04-23 15:06 | 1.40199 | 103.85169 | 565 ft | 81 kts | 116° |
| 2026-04-23 15:06 | 1.40083 | 103.85675 | 401 ft | 80 kts | 56° |
| 2026-04-23 15:07 | 1.40538 | 103.86002 | 235 ft | 77 kts | 37° |
| 2026-04-23 15:07 | 1.40966 | 103.86289 | 72 ft | 73 kts | 36° |
| 2026-04-23 15:07 | 1.41327 | 103.86524 | 49 ft | 51 kts | 34° |
| 2026-04-23 15:07 | 1.41560 | 103.86678 | 49 ft | 33 kts | 34° |
| 2026-04-23 15:08 | 1.41681 | 103.86759 | 48 ft | 17 kts | 33° |
| 2026-04-23 15:08 | 1.41748 | 103.86746 | 48 ft | 11 kts | 305° |
| 2026-04-23 15:08 | 1.41799 | 103.86665 | 49 ft | 10 kts | 274° |
| 2026-04-23 15:09 | 1.41664 | 103.86556 | 49 ft | 16 kts | 213° |
| 2026-04-23 15:09 | 1.41559 | 103.86481 | 49 ft | 20 kts | 216° |
| 2026-04-23 15:09 | 1.41478 | 103.86426 | 49 ft | 3 kts | 254° |
| 2026-04-23 15:09 | 1.41456 | 103.86370 | 49 ft | 11 kts | 232° |
| 2026-04-23 15:10 | 1.41437 | 103.86357 | 49 ft | 4 kts | 167° |